Have a Safe July 4th! 

Flight Track Log - Related Links

Times and Time Zones

All times are in EDT time to prevent confusion due to time zone crossing. See the HAL45 flight status page for this flight to view local times or setup timezone preferences in your user account.

Time Position Orientation Groundspeed Altitude Reporting Facility
EDT Latitude Longitude Course Direction KTS MPH feet Rate Location/Type
Mon 11:11:32 AM 37.3830 -121.9490 319° Northwest 179 206 1,000  Level FlightAware ADS-B
Mon 11:12:12 AM 37.4130 -121.9850 316° Northwest 231 266 2,300 2,314 Climbing FlightAware ADS-B
Mon 11:12:42 AM 37.4230 -122.0260 287° West 264 304 3,700 2,618 Climbing FlightAware ADS-B
Mon 11:13:07 AM 37.4200 -122.0640 264° West 266 306 4,700 1,418 Climbing FlightAware ADS-B
Mon 11:13:37 AM 37.4140 -122.1090 260° West 267 307 5,000 327 Climbing FlightAware ADS-B
Mon 11:14:02 AM 37.4080 -122.1480 259° West 265 305 5,000  Level FlightAware ADS-B
Mon 11:14:17 AM 37.4060 -122.1690 263° West 264 304 5,000  Level FlightAware ADS-B
Mon 11:14:42 AM 37.4010 -122.2030 260° West 264 304 5,000  Level FlightAware ADS-B
Mon 11:15:12 AM 37.3960 -122.2480 262° West 267 307 5,000 800 Level FlightAware ADS-B
Mon 11:15:42 AM 37.3880 -122.2990 259° West 274 315 5,800 2,182 Climbing FlightAware ADS-B
Mon 11:16:07 AM 37.3830 -122.3400 261° West 283 326 7,000 2,800 Climbing FlightAware ADS-B
Mon 11:16:27 AM 37.3790 -122.3700 260° West 291 335 7,900 2,720 Climbing FlightAware ADS-B
Mon 11:17:22 AM 37.3660 -122.4640 260° West 317 365 10,400 1,958 Climbing FlightAware ADS-B
Mon 11:18:02 AM 37.3570 -122.5440 262° West 374 430 11,000 2,080 Climbing FlightAware ADS-B
Mon 11:18:37 AM 37.3470 -122.6150 260° West 372 428 13,000 3,035 Climbing FlightAware ADS-B
Mon 11:19:27 AM 37.3310 -122.7370 261° West 391 450 15,300 1,600 Climbing FlightAware ADS-B
Mon 11:20:07 AM 37.3220 -122.8080 261° West 391 450 15,400 2,625 Climbing FlightAware ADS-B
Mon 11:20:47 AM 37.3050 -122.9200 259° West 404 465 18,800 2,800 Climbing FlightAware ADS-B
Mon 11:21:37 AM 37.2860 -123.0220 257° West 404 465 19,600 480 Climbing FlightAware ADS-B
Mon 11:22:27 AM 37.2680 -123.1190 257° West 404 465 19,600  Level FlightAware ADS-B
Mon 11:23:07 AM 37.2540 -123.1970 257° West 404 465 19,600 2,824 Level FlightAware ADS-B
Mon 11:23:42 AM 37.2270 -123.3320 256° West 24,500 4,253 Climbing FlightAware ADS-B
Mon 11:24:26 AM 37.2078 -123.4328 256° West 442 509 25,200 1,472 Climbing Oakland Center
Mon 11:25:28 AM 37.1753 -123.5889 255° West 459 528 27,100 1,707 Climbing Oakland Center
Mon 11:26:29 AM 37.1461 -123.7447 257° West 461 531 28,700 1,721 Climbing Oakland Center
Mon 11:27:30 AM 37.1147 -123.9022 256° West 466 536 30,600 2,016 Climbing Oakland Center
Mon 11:28:31 AM 37.0831 -124.0556 256° West 460 529 32,800 1,623 Climbing Oakland Center
Mon 11:29:32 AM 37.0472 -124.2350 256° West 445 512 33,900 590 Climbing Oakland Center
Mon 11:30:33 AM 37.0175 -124.3842 256° West 443 510 34,000 49 Climbing Oakland Center
Mon 11:31:35 AM 36.9858 -124.5347 255° West 448 516 34,000  Level Oakland Center
Mon 11:32:36 AM 36.9539 -124.6864 255° West 452 520 34,000  Level Oakland Center
Mon 11:33:37 AM 36.9231 -124.8367 256° West 449 517 34,000  Level Oakland Center
Mon 11:34:38 AM 36.8919 -124.9900 256° West 453 521 34,000  Level Oakland Center
Mon 11:35:39 AM 36.8594 -125.1403 255° West 452 520 34,000  Level Oakland Center
Mon 11:36:41 AM 36.8289 -125.2906 256° West 450 518 34,000  Level Oakland Center
Mon 11:37:42 AM 36.7969 -125.4400 255° West 447 514 34,000  Level Oakland Center
Mon 11:38:43 AM 36.7636 -125.5878 254° West 445 512 34,000  Level Oakland Center
Mon 11:39:44 AM 36.7253 -125.7669 255° West 446 513 34,000  Level Oakland Center
Mon 11:40:46 AM 36.6936 -125.9158 255° West 446 513 34,000  Level Oakland Center
Mon 11:41:47 AM 36.6608 -126.0644 255° West 445 512 34,000  Level Oakland Center
Mon 11:42:48 AM 36.6275 -126.2139 255° West 447 514 34,000  Level Oakland Center
Mon 11:43:49 AM 36.5950 -126.3636 255° West 448 516 34,000  Level Oakland Center
Mon 11:44:51 AM 36.5622 -126.5131 255° West 449 517 34,000  Level Oakland Center
Mon 11:45:52 AM 36.5303 -126.6636 255° West 450 518 34,000  Level Oakland Center
Mon 11:46:53 AM 36.4947 -126.8131 254° West 451 519 34,000  Level Oakland Center
Mon 11:47:42 AM 36.4667 -126.9333 250° West 460 529 34,000  Level Oakland Oceanic (ODAPS)
Mon 11:51:29 AM 36.3000 -127.4833 250° West 463 533 34,000  Level Oakland Oceanic (ODAPS)
Mon 11:54:00 AM 36.2024 -127.8290 250° West 460 529 34,000  Level FlightAware Transoceanic
Mon 11:55:00 AM 36.1577 -127.9778 250° West 460 529 34,000  Level FlightAware Transoceanic
Mon 11:56:00 AM 36.1128 -128.1263 249° West 460 529 34,000  Level FlightAware Transoceanic
Mon 11:57:00 AM 36.0305 -128.3813 249° West 463 533 34,000  Level FlightAware Transoceanic
Mon 11:58:00 AM 35.9849 -128.5304 249° West 463 533 34,000  Level FlightAware Transoceanic
Mon 11:59:00 AM 35.9392 -128.6793 249° West 463 533 34,000  Level FlightAware Transoceanic
Mon 12:00:00 PM 35.8932 -128.8280 249° West 463 533 34,000  Level FlightAware Transoceanic
Mon 12:01:00 PM 35.8471 -128.9765 249° West 463 533 34,000  Level FlightAware Transoceanic
Mon 12:02:00 PM 35.8008 -129.1249 249° West 463 533 34,000  Level FlightAware Transoceanic
Mon 12:03:00 PM 35.7543 -129.2731 249° West 463 533 34,000  Level FlightAware Transoceanic
Mon 12:04:00 PM 35.7076 -129.4211 249° West 463 533 34,000  Level FlightAware Transoceanic
Mon 12:05:00 PM 35.6608 -129.5690 249° West 463 533 34,000  Level FlightAware Transoceanic
Mon 12:05:24 PM 35.6667 -129.5500 249° West 470 541 34,000  Level Oakland Oceanic (ODAPS)
Mon 12:06:00 PM 35.6138 -129.7167 249° West 463 533 34,000  Level FlightAware Transoceanic
Mon 12:07:00 PM 35.5666 -129.8642 248° West 463 533 34,000  Level FlightAware Transoceanic
Mon 12:08:00 PM 35.5192 -130.0115 248° West 463 533 34,000  Level FlightAware Transoceanic
Mon 12:09:00 PM 35.4716 -130.1587 248° West 463 533 34,000  Level FlightAware Transoceanic
Mon 12:10:00 PM 35.4239 -130.3056 248° West 463 533 34,000  Level FlightAware Transoceanic
Mon 12:11:00 PM 35.3809 -130.4370 248° West 470 541 34,000  Level FlightAware Transoceanic
Mon 12:12:00 PM 35.3326 -130.5842 248° West 470 541 34,000  Level FlightAware Transoceanic
Mon 12:13:00 PM 35.2841 -130.7313 248° West 470 541 34,000  Level FlightAware Transoceanic
Mon 12:14:00 PM 35.2355 -130.8782 248° West 470 541 34,000  Level FlightAware Transoceanic
Mon 12:15:00 PM 35.1867 -131.0249 248° West 470 541 34,000  Level FlightAware Transoceanic
Mon 12:16:00 PM 35.1377 -131.1714 248° West 470 541 34,000  Level FlightAware Transoceanic
Mon 12:17:00 PM 35.0886 -131.3177 248° West 470 541 34,000  Level FlightAware Transoceanic
Mon 12:18:00 PM 35.0393 -131.4639 248° West 470 541 34,000  Level FlightAware Transoceanic
Mon 12:19:00 PM 34.9898 -131.6099 247° West 470 541 34,000  Level FlightAware Transoceanic
Mon 12:19:16 PM 35.0000 -131.6000 247° West 475 547 34,000  Level Oakland Oceanic (ODAPS)
Mon 12:20:00 PM 34.9401 -131.7557 247° West 470 541 34,000  Level FlightAware Transoceanic
Mon 12:21:00 PM 34.8902 -131.9013 247° West 470 541 34,000  Level FlightAware Transoceanic
Mon 12:22:00 PM 34.8402 -132.0468 247° West 470 541 34,000  Level FlightAware Transoceanic
Mon 12:23:00 PM 34.7900 -132.1921 247° West 470 541 34,000  Level FlightAware Transoceanic
Mon 12:24:00 PM 34.7396 -132.3372 247° West 470 541 34,000  Level FlightAware Transoceanic
Mon 12:25:00 PM 34.6962 -132.4754 247° West 475 547 34,000  Level FlightAware Transoceanic
Mon 12:26:00 PM 34.6449 -132.6207 247° West 475 547 34,000  Level FlightAware Transoceanic
Mon 12:27:00 PM 34.5935 -132.7658 247° West 475 547 34,000  Level FlightAware Transoceanic
Mon 12:28:00 PM 34.5419 -132.9107 247° West 475 547 34,000  Level FlightAware Transoceanic
Mon 12:29:00 PM 34.4901 -133.0555 246° West 475 547 34,000  Level FlightAware Transoceanic
Mon 12:30:00 PM 34.4382 -133.2000 246° West 475 547 34,000  Level FlightAware Transoceanic
Mon 12:31:00 PM 34.3861 -133.3444 246° West 475 547 34,000  Level FlightAware Transoceanic
Mon 12:32:00 PM 34.3338 -133.4886 246° West 475 547 34,000  Level FlightAware Transoceanic
Mon 12:33:00 PM 34.2814 -133.6326 246° West 475 547 34,000  Level FlightAware Transoceanic
Mon 12:33:04 PM 34.2833 -133.6500 245° Southwest 471 542 34,000  Level Oakland Oceanic (ODAPS)
Mon 12:34:00 PM 34.2288 -133.7764 246° West 475 547 34,000  Level FlightAware Transoceanic
Mon 12:35:00 PM 34.1760 -133.9201 246° West 475 547 34,000  Level FlightAware Transoceanic
Mon 12:36:00 PM 34.1231 -134.0636 246° West 475 547 34,000  Level FlightAware Transoceanic
Mon 12:37:00 PM 34.0699 -134.2069 246° West 475 547 34,000  Level FlightAware Transoceanic
Mon 12:37:50 PM 34.0167 -134.3500 246° West 460 529 34,000  Level Oakland Oceanic (ODAPS)
Mon 12:38:00 PM 34.0167 -134.3500 246° West 475 547 34,000  Level FlightAware Transoceanic
Mon 12:39:00 PM 33.9659 -134.4875 246° West 475 547 34,000  Level FlightAware Transoceanic
Mon 12:40:00 PM 33.9149 -134.6248 246° West 471 542 34,000  Level FlightAware Transoceanic
Mon 12:41:00 PM 33.8638 -134.7620 246° West 471 542 34,000  Level FlightAware Transoceanic
Mon 12:42:00 PM 33.8126 -134.8990 246° West 471 542 34,000  Level FlightAware Transoceanic
Mon 12:43:00 PM 33.7612 -135.0358 246° West 471 542 34,000  Level FlightAware Transoceanic
Mon 12:44:00 PM 33.7035 -135.1886 246° West 460 529 34,000  Level FlightAware Transoceanic
Mon 12:45:00 PM 33.6508 -135.3277 245° Southwest 460 529 34,000  Level FlightAware Transoceanic
Mon 12:46:00 PM 33.5979 -135.4667 245° Southwest 460 529 34,000  Level FlightAware Transoceanic
Mon 12:46:56 PM 33.5333 -135.6333 245° Southwest 452 520 34,000  Level Oakland Oceanic (ODAPS)
Mon 12:47:00 PM 33.5449 -135.6055 245° Southwest 460 529 34,000  Level FlightAware Transoceanic
Mon 12:48:00 PM 33.4917 -135.7442 245° Southwest 460 529 34,000  Level FlightAware Transoceanic
Mon 12:49:00 PM 33.4383 -135.8827 245° Southwest 460 529 34,000  Level FlightAware Transoceanic
Mon 12:50:00 PM 33.3848 -136.0210 245° Southwest 460 529 34,000  Level FlightAware Transoceanic
Mon 12:51:00 PM 33.3312 -136.1591 245° Southwest 460 529 34,000  Level FlightAware Transoceanic
Mon 12:52:00 PM 33.2773 -136.2971 245° Southwest 460 529 34,000  Level FlightAware Transoceanic
Mon 12:53:00 PM 33.2133 -136.4585 245° Southwest 452 520 34,000  Level FlightAware Transoceanic
Mon 12:54:00 PM 33.1595 -136.5955 245° Southwest 452 520 34,000  Level FlightAware Transoceanic
Mon 12:55:00 PM 33.1054 -136.7323 245° Southwest 452 520 34,000  Level FlightAware Transoceanic
Mon 12:56:00 PM 33.0513 -136.8689 245° Southwest 452 520 34,000  Level FlightAware Transoceanic
Mon 12:57:00 PM 32.9969 -137.0053 245° Southwest 452 520 34,000  Level FlightAware Transoceanic
Mon 12:58:00 PM 32.9425 -137.1416 244° Southwest 452 520 34,000  Level FlightAware Transoceanic
Mon 12:59:00 PM 32.8879 -137.2777 244° Southwest 452 520 34,000  Level FlightAware Transoceanic
Mon 01:00:00 PM 32.8331 -137.4136 244° Southwest 452 520 34,000  Level FlightAware Transoceanic
Mon 01:00:54 PM 32.7667 -137.6000 244° Southwest 454 522 34,000  Level Oakland Oceanic (ODAPS)
Mon 01:01:00 PM 32.7782 -137.5494 244° Southwest 452 520 34,000  Level FlightAware Transoceanic
Mon 01:02:00 PM 32.7232 -137.6850 244° Southwest 452 520 34,000  Level FlightAware Transoceanic
Mon 01:03:00 PM 32.6680 -137.8204 244° Southwest 452 520 34,000  Level FlightAware Transoceanic
Mon 01:04:00 PM 32.6126 -137.9557 244° Southwest 452 520 34,000  Level FlightAware Transoceanic
Mon 01:05:00 PM 32.5572 -138.0908 244° Southwest 452 520 34,000  Level FlightAware Transoceanic
Mon 01:06:00 PM 32.5015 -138.2257 244° Southwest 452 520 34,000  Level FlightAware Transoceanic
Mon 01:07:00 PM 32.4241 -138.4295 244° Southwest 454 522 34,000  Level FlightAware Transoceanic
Mon 01:08:00 PM 32.3665 -138.5672 244° Southwest 454 522 34,000  Level FlightAware Transoceanic
Mon 01:09:00 PM 32.3087 -138.7046 244° Southwest 454 522 34,000  Level FlightAware Transoceanic
Mon 01:10:00 PM 32.2508 -138.8419 243° Southwest 454 522 34,000  Level FlightAware Transoceanic
Mon 01:11:00 PM 32.1927 -138.9790 243° Southwest 454 522 34,000  Level FlightAware Transoceanic
Mon 01:12:00 PM 32.1345 -139.1160 243° Southwest 454 522 34,000  Level FlightAware Transoceanic
Mon 01:13:00 PM 32.0761 -139.2527 243° Southwest 454 522 34,000  Level FlightAware Transoceanic
Mon 01:14:00 PM 32.0176 -139.3893 243° Southwest 454 522 34,000  Level FlightAware Transoceanic
Mon 01:14:39 PM 31.9833 -139.4500 243° Southwest 444 511 34,000  Level Oakland Oceanic (ODAPS)
Mon 01:15:00 PM 31.9590 -139.5257 243° Southwest 454 522 34,000  Level FlightAware Transoceanic
Mon 01:16:00 PM 31.9002 -139.6620 243° Southwest 454 522 34,000  Level FlightAware Transoceanic
Mon 01:17:00 PM 31.8412 -139.7980 243° Southwest 454 522 34,000  Level FlightAware Transoceanic
Mon 01:18:00 PM 31.7821 -139.9339 243° Southwest 454 522 34,000  Level FlightAware Transoceanic
Mon 01:19:00 PM 31.7229 -140.0697 243° Southwest 454 522 34,000  Level FlightAware Transoceanic
Mon 01:20:00 PM 31.6635 -140.2052 243° Southwest 454 522 34,000  Level FlightAware Transoceanic
Mon 01:21:00 PM 31.6437 -140.2396 243° Southwest 444 511 34,000  Level FlightAware Transoceanic
Mon 01:22:00 PM 31.5866 -140.3706 243° Southwest 444 511 34,000  Level FlightAware Transoceanic
Mon 01:23:00 PM 31.5294 -140.5015 243° Southwest 444 511 34,000  Level FlightAware Transoceanic
Mon 01:24:00 PM 31.4720 -140.6322 243° Southwest 444 511 34,000  Level FlightAware Transoceanic
Mon 01:25:00 PM 31.4146 -140.7627 243° Southwest 444 511 34,000  Level FlightAware Transoceanic
Mon 01:26:00 PM 31.3570 -140.8931 243° Southwest 444 511 34,000  Level FlightAware Transoceanic
Mon 01:27:00 PM 31.2992 -141.0233 243° Southwest 444 511 34,000  Level FlightAware Transoceanic
Mon 01:28:00 PM 31.2413 -141.1534 242° Southwest 444 511 34,000  Level FlightAware Transoceanic
Mon 01:28:38 PM 31.2167 -141.2167 240° Southwest 426 490 34,000  Level Oakland Oceanic (ODAPS)
Mon 01:29:00 PM 31.1833 -141.2833 242° Southwest 444 511 34,000  Level FlightAware Transoceanic
Mon 01:29:11 PM 31.1833 -141.2833 242° Southwest 426 490 34,000  Level Oakland Oceanic (ODAPS)
Mon 01:30:00 PM 31.1287 -141.4044 242° Southwest 444 511 34,000  Level FlightAware Transoceanic
Mon 01:31:00 PM 31.0740 -141.5253 242° Southwest 444 511 34,000  Level FlightAware Transoceanic
Mon 01:32:00 PM 31.0191 -141.6461 242° Southwest 444 511 34,000  Level FlightAware Transoceanic
Mon 01:33:00 PM 30.9642 -141.7667 242° Southwest 444 511 34,000  Level FlightAware Transoceanic
Mon 01:34:00 PM 30.9091 -141.8872 242° Southwest 444 511 34,000  Level FlightAware Transoceanic
Mon 01:35:00 PM 30.8480 -142.0204 242° Southwest 426 490 34,000  Level FlightAware Transoceanic
Mon 01:36:00 PM 30.7917 -142.1428 242° Southwest 426 490 34,000  Level FlightAware Transoceanic
Mon 01:37:00 PM 30.7353 -142.2650 242° Southwest 426 490 34,000  Level FlightAware Transoceanic
Mon 01:38:00 PM 30.6787 -142.3871 242° Southwest 426 490 34,000  Level FlightAware Transoceanic
Mon 01:39:00 PM 30.6221 -142.5090 242° Southwest 426 490 34,000  Level FlightAware Transoceanic
Mon 01:40:00 PM 30.5653 -142.6308 242° Southwest 426 490 34,000  Level FlightAware Transoceanic
Mon 01:41:00 PM 30.5085 -142.7524 241° Southwest 426 490 34,000  Level FlightAware Transoceanic
Mon 01:42:00 PM 30.4515 -142.8739 241° Southwest 426 490 34,000 1,429 Level FlightAware Transoceanic
Mon 01:42:24 PM 30.4500 -142.8833 241° Southwest 409 471 36,000  Climbing Oakland Oceanic (ODAPS)
Mon 01:43:00 PM 30.3944 -142.9952 241° Southwest 426 490 34,000 -1,250 Descending FlightAware Transoceanic
Mon 01:44:00 PM 30.3372 -143.1165 241° Southwest 426 490 34,000  Level FlightAware Transoceanic
Mon 01:45:00 PM 30.2799 -143.2375 241° Southwest 426 490 34,000  Level FlightAware Transoceanic
Mon 01:46:00 PM 30.2225 -143.3584 241° Southwest 426 490 34,000  Level FlightAware Transoceanic
Mon 01:47:00 PM 30.1649 -143.4792 241° Southwest 426 490 34,000 1,000 Level FlightAware Transoceanic
Mon 01:48:00 PM 30.1213 -143.5759 241° Southwest 409 471 36,000 1,000 Climbing FlightAware Transoceanic
Mon 01:49:00 PM 30.0662 -143.6908 241° Southwest 409 471 36,000  Level FlightAware Transoceanic
Mon 01:50:00 PM 30.0109 -143.8057 241° Southwest 409 471 36,000  Level FlightAware Transoceanic
Mon 01:51:00 PM 29.9556 -143.9204 241° Southwest 409 471 36,000  Level FlightAware Transoceanic
Mon 01:52:00 PM 29.9002 -144.0350 241° Southwest 409 471 36,000  Level FlightAware Transoceanic
Mon 01:53:00 PM 29.8446 -144.1494 241° Southwest 409 471 36,000  Level FlightAware Transoceanic
Mon 01:54:00 PM 29.7890 -144.2638 241° Southwest 409 471 36,000  Level FlightAware Transoceanic
Mon 01:55:00 PM 29.7333 -144.3780 241° Southwest 409 471 36,000  Level FlightAware Transoceanic
Mon 01:56:00 PM 29.6775 -144.4920 241° Southwest 409 471 36,000  Level FlightAware Transoceanic
Mon 01:56:25 PM 29.6833 -144.4667 241° Southwest 407 468 36,000  Level Oakland Oceanic (ODAPS)
Mon 01:57:00 PM 29.6215 -144.6060 241° Southwest 409 471 36,000  Level FlightAware Transoceanic
Mon 01:58:00 PM 29.5655 -144.7198 240° Southwest 409 471 36,000  Level FlightAware Transoceanic
Mon 01:59:00 PM 29.5094 -144.8335 240° Southwest 409 471 36,000  Level FlightAware Transoceanic
Mon 02:00:00 PM 29.4532 -144.9471 240° Southwest 409 471 36,000  Level FlightAware Transoceanic
Mon 02:01:00 PM 29.3969 -145.0605 240° Southwest 409 471 36,000  Level FlightAware Transoceanic
Mon 02:02:00 PM 29.3453 -145.1535 240° Southwest 407 468 36,000  Level FlightAware Transoceanic
Mon 02:03:00 PM 29.2886 -145.2675 240° Southwest 407 468 36,000  Level FlightAware Transoceanic
Mon 02:04:00 PM 29.2318 -145.3814 240° Southwest 407 468 36,000  Level FlightAware Transoceanic
Mon 02:05:00 PM 29.1750 -145.4952 240° Southwest 407 468 36,000  Level FlightAware Transoceanic
Mon 02:06:00 PM 29.1180 -145.6088 240° Southwest 407 468 36,000  Level FlightAware Transoceanic
Mon 02:07:00 PM 29.0609 -145.7224 240° Southwest 407 468 36,000  Level FlightAware Transoceanic
Mon 02:08:00 PM 29.0038 -145.8358 240° Southwest 407 468 36,000  Level FlightAware Transoceanic
Mon 02:09:00 PM 28.9465 -145.9490 240° Southwest 407 468 36,000  Level FlightAware Transoceanic
Mon 02:10:00 PM 28.8892 -146.0622 240° Southwest 407 468 36,000  Level FlightAware Transoceanic
Mon 02:10:17 PM 28.9000 -146.0333 240° Southwest 405 466 36,000  Level Oakland Oceanic (ODAPS)
Mon 02:11:00 PM 28.8317 -146.1752 240° Southwest 407 468 36,000  Level FlightAware Transoceanic
Mon 02:12:00 PM 28.7742 -146.2881 240° Southwest 407 468 36,000  Level FlightAware Transoceanic
Mon 02:13:00 PM 28.7165 -146.4008 240° Southwest 407 468 36,000  Level FlightAware Transoceanic
Mon 02:14:00 PM 28.6588 -146.5135 240° Southwest 407 468 36,000  Level FlightAware Transoceanic
Mon 02:15:00 PM 28.6010 -146.6260 240° Southwest 407 468 36,000  Level FlightAware Transoceanic
Mon 02:16:00 PM 28.5697 -146.6818 240° Southwest 405 466 36,000  Level FlightAware Transoceanic
Mon 02:17:00 PM 28.5144 -146.7895 240° Southwest 405 466 36,000  Level FlightAware Transoceanic
Mon 02:18:00 PM 28.4589 -146.8971 240° Southwest 405 466 36,000  Level FlightAware Transoceanic
Mon 02:19:00 PM 28.4034 -147.0046 240° Southwest 405 466 36,000  Level FlightAware Transoceanic
Mon 02:20:00 PM 28.3478 -147.1119 239° Southwest 405 466 36,000  Level FlightAware Transoceanic
Mon 02:21:00 PM 28.2921 -147.2191 239° Southwest 405 466 36,000  Level FlightAware Transoceanic
Mon 02:22:00 PM 28.2364 -147.3263 239° Southwest 405 466 36,000  Level FlightAware Transoceanic
Mon 02:23:00 PM 28.1805 -147.4333 239° Southwest 405 466 36,000  Level FlightAware Transoceanic
Mon 02:24:00 PM 28.1246 -147.5402 239° Southwest 405 466 36,000  Level FlightAware Transoceanic
Mon 02:24:00 PM 28.1000 -147.5667 241° Southwest 402 463 36,000  Level Oakland Oceanic (ODAPS)
Mon 02:25:00 PM 28.0686 -147.6470 239° Southwest 405 466 36,000  Level FlightAware Transoceanic
Mon 02:26:00 PM 28.0124 -147.7536 239° Southwest 405 466 36,000  Level FlightAware Transoceanic
Mon 02:27:00 PM 27.9563 -147.8602 239° Southwest 405 466 36,000  Level FlightAware Transoceanic
Mon 02:27:48 PM 27.9000 -147.9667 239° Southwest 397 457 36,000  Level Oakland Oceanic (ODAPS)
Mon 02:28:00 PM 27.9000 -147.9667 239° Southwest 405 466 36,000  Level FlightAware Transoceanic
Mon 02:29:00 PM 27.8423 -148.0746 239° Southwest 405 466 36,000  Level FlightAware Transoceanic
Mon 02:30:00 PM 27.7845 -148.1825 239° Southwest 402 463 36,000  Level FlightAware Transoceanic
Mon 02:31:00 PM 27.7267 -148.2902 239° Southwest 402 463 36,000  Level FlightAware Transoceanic
Mon 02:32:00 PM 27.6688 -148.3978 239° Southwest 402 463 36,000  Level FlightAware Transoceanic
Mon 02:33:00 PM 27.6107 -148.5054 239° Southwest 402 463 36,000  Level FlightAware Transoceanic
Mon 02:34:00 PM 27.5526 -148.6128 239° Southwest 397 457 36,000  Level FlightAware Transoceanic
Mon 02:35:00 PM 27.4944 -148.7200 239° Southwest 397 457 36,000  Level FlightAware Transoceanic
Mon 02:36:00 PM 27.4362 -148.8272 238° Southwest 397 457 36,000  Level FlightAware Transoceanic
Mon 02:37:00 PM 27.3778 -148.9343 238° Southwest 397 457 36,000  Level FlightAware Transoceanic
Mon 02:37:51 PM 27.3167 -149.0500 238° Southwest 397 457 36,000  Level Oakland Oceanic (ODAPS)
Mon 02:38:00 PM 27.3194 -149.0412 238° Southwest 397 457 36,000  Level FlightAware Transoceanic
Mon 02:39:00 PM 27.2609 -149.1480 238° Southwest 397 457 36,000  Level FlightAware Transoceanic
Mon 02:40:00 PM 27.2023 -149.2548 238° Southwest 397 457 36,000  Level FlightAware Transoceanic
Mon 02:41:00 PM 27.1436 -149.3614 238° Southwest 397 457 36,000  Level FlightAware Transoceanic
Mon 02:42:00 PM 27.0849 -149.4679 238° Southwest 397 457 36,000  Level FlightAware Transoceanic
Mon 02:43:00 PM 27.0260 -149.5742 238° Southwest 397 457 36,000  Level FlightAware Transoceanic
Mon 02:44:00 PM 26.9647 -149.6882 238° Southwest 397 457 36,000  Level FlightAware Transoceanic
Mon 02:45:00 PM 26.9057 -149.7942 238° Southwest 397 457 36,000  Level FlightAware Transoceanic
Mon 02:46:00 PM 26.8467 -149.9001 238° Southwest 397 457 36,000  Level FlightAware Transoceanic
Mon 02:47:00 PM 26.7876 -150.0058 238° Southwest 397 457 36,000  Level FlightAware Transoceanic
Mon 02:48:00 PM 26.7284 -150.1115 238° Southwest 397 457 36,000  Level FlightAware Transoceanic
Mon 02:49:00 PM 26.6691 -150.2170 238° Southwest 397 457 36,000  Level FlightAware Transoceanic
Mon 02:50:00 PM 26.6098 -150.3224 238° Southwest 397 457 36,000  Level FlightAware Transoceanic
Mon 02:51:00 PM 26.5504 -150.4277 238° Southwest 397 457 36,000  Level FlightAware Transoceanic
Mon 02:51:51 PM 26.5000 -150.5167 238° Southwest 397 457 36,000  Level Oakland Oceanic (ODAPS)
Mon 02:52:00 PM 26.4909 -150.5330 238° Southwest 397 457 36,000  Level FlightAware Transoceanic
Mon 02:53:00 PM 26.4313 -150.6381 238° Southwest 397 457 36,000  Level FlightAware Transoceanic
Mon 02:54:00 PM 26.3717 -150.7431 238° Southwest 397 457 36,000  Level FlightAware Transoceanic
Mon 02:55:00 PM 26.3120 -150.8479 238° Southwest 397 457 36,000  Level FlightAware Transoceanic
Mon 02:56:00 PM 26.2522 -150.9527 237° Southwest 397 457 36,000  Level FlightAware Transoceanic
Mon 02:57:00 PM 26.1923 -151.0574 237° Southwest 397 457 36,000  Level FlightAware Transoceanic
Mon 02:58:00 PM 26.1400 -151.1484 237° Southwest 397 457 36,000  Level FlightAware Transoceanic
Mon 02:59:00 PM 26.0797 -151.2534 237° Southwest 397 457 36,000  Level FlightAware Transoceanic
Mon 03:00:00 PM 26.0194 -151.3582 237° Southwest 397 457 36,000  Level FlightAware Transoceanic
Mon 03:01:00 PM 25.9589 -151.4629 237° Southwest 397 457 36,000  Level FlightAware Transoceanic
Mon 03:02:00 PM 25.8984 -151.5675 237° Southwest 397 457 36,000  Level FlightAware Transoceanic
Mon 03:03:00 PM 25.8379 -151.6719 237° Southwest 397 457 36,000  Level FlightAware Transoceanic
Mon 03:04:00 PM 25.7772 -151.7763 237° Southwest 397 457 36,000  Level FlightAware Transoceanic
Mon 03:05:00 PM 25.7165 -151.8806 237° Southwest 397 457 36,000  Level FlightAware Transoceanic
Mon 03:05:36 PM 25.6667 -151.9500 237° Southwest 397 457 36,000  Level Oakland Oceanic (ODAPS)
Mon 03:06:00 PM 25.6557 -151.9848 237° Southwest 397 457 36,000  Level FlightAware Transoceanic
Mon 03:07:00 PM 25.5948 -152.0888 237° Southwest 397 457 36,000  Level FlightAware Transoceanic
Mon 03:08:00 PM 25.5339 -152.1928 237° Southwest 397 457 36,000  Level FlightAware Transoceanic
Mon 03:09:00 PM 25.4729 -152.2966 237° Southwest 397 457 36,000  Level FlightAware Transoceanic
Mon 03:10:00 PM 25.4118 -152.4004 237° Southwest 397 457 36,000  Level FlightAware Transoceanic
Mon 03:11:00 PM 25.3506 -152.5040 237° Southwest 397 457 36,000  Level FlightAware Transoceanic
Mon 03:12:00 PM 25.2545 -152.6554 237° Southwest 397 457 36,000  Level FlightAware Transoceanic
Mon 03:13:00 PM 25.1953 -152.7558 237° Southwest 397 457 36,000  Level FlightAware Transoceanic
Mon 03:14:00 PM 25.1361 -152.8561 237° Southwest 397 457 36,000  Level FlightAware Transoceanic
Mon 03:15:00 PM 25.0768 -152.9563 237° Southwest 397 457 36,000  Level FlightAware Transoceanic
Mon 03:16:00 PM 25.0175 -153.0564 237° Southwest 397 457 36,000  Level FlightAware Transoceanic
Mon 03:17:00 PM 24.9580 -153.1564 237° Southwest 397 457 36,000  Level FlightAware Transoceanic
Mon 03:18:00 PM 24.8985 -153.2563 237° Southwest 397 457 36,000  Level FlightAware Transoceanic
Mon 03:19:00 PM 24.8390 -153.3561 237° Southwest 397 457 36,000  Level FlightAware Transoceanic
Mon 03:19:33 PM 24.8333 -153.3833 236° Southwest 393 452 36,000  Level Oakland Oceanic (ODAPS)
Mon 03:20:00 PM 24.7794 -153.4558 237° Southwest 397 457 36,000  Level FlightAware Transoceanic
Mon 03:21:00 PM 24.7197 -153.5554 237° Southwest 397 457 36,000  Level FlightAware Transoceanic
Mon 03:22:00 PM 24.6599 -153.6549 237° Southwest 397 457 36,000  Level FlightAware Transoceanic
Mon 03:23:00 PM 24.6001 -153.7543 236° Southwest 397 457 36,000  Level FlightAware Transoceanic
Mon 03:24:00 PM 24.5402 -153.8537 236° Southwest 397 457 36,000  Level FlightAware Transoceanic
Mon 03:25:00 PM 24.4783 -153.9619 236° Southwest 393 452 36,000  Level FlightAware Transoceanic
Mon 03:26:00 PM 24.4189 -154.0580 236° Southwest 393 452 36,000  Level FlightAware Transoceanic
Mon 03:27:00 PM 24.3595 -154.1541 236° Southwest 393 452 36,000  Level FlightAware Transoceanic
Mon 03:27:05 PM 24.3500 -154.1333 236° Southwest 390 449 36,000  Level Honolulu Center
Mon 03:28:00 PM 24.3000 -154.2500 236° Southwest 393 452 36,000  Level FlightAware Transoceanic
Mon 03:28:06 PM 24.3000 -154.2333 241° Southwest 390 449 36,000  Level Honolulu Center
Mon 03:29:00 PM 24.2414 -154.3454 236° Southwest 393 452 36,000  Level FlightAware Transoceanic
Mon 03:29:06 PM 24.2333 -154.3333 234° Southwest 390 449 36,000  Level Honolulu Center
Mon 03:30:00 PM 24.1827 -154.4407 236° Southwest 393 452 36,000  Level FlightAware Transoceanic
Mon 03:30:06 PM 24.1667 -154.4333 234° Southwest 390 449 36,000  Level Honolulu Center
Mon 03:31:00 PM 24.1239 -154.5359 236° Southwest 393 452 36,000  Level FlightAware Transoceanic
Mon 03:31:06 PM 24.1167 -154.5333 241° Southwest 390 449 36,000  Level Honolulu Center
Mon 03:32:00 PM 24.0651 -154.6310 236° Southwest 393 452 36,000  Level FlightAware Transoceanic
Mon 03:32:06 PM 24.0500 -154.6333 234° Southwest 390 449 36,000  Level Honolulu Center
Mon 03:33:06 PM 23.9667 -154.7167 222° Southwest 410 472 36,000  Level Honolulu Center
Mon 03:34:06 PM 23.8667 -154.7833 211° Southwest 420 483 36,000  Level Honolulu Center
Mon 03:35:06 PM 23.7667 -154.8333 205° Southwest 410 472 36,000  Level Honolulu Center
Mon 03:36:07 PM 23.6667 -154.8833 205° Southwest 420 483 36,000  Level Honolulu Center
Mon 03:37:07 PM 23.5667 -154.9500 211° Southwest 410 472 36,000  Level Honolulu Center
Mon 03:38:07 PM 23.4500 -155.0000 201° Southwest 410 472 36,000  Level Honolulu Center
Mon 03:39:07 PM 23.3500 -155.0500 205° Southwest 410 472 36,000  Level Honolulu Center
Mon 03:40:07 PM 23.2500 -155.1167 211° Southwest 400 460 36,000  Level Honolulu Center
Mon 03:41:07 PM 23.1500 -155.1667 205° Southwest 410 472 36,000  Level Honolulu Center
Mon 03:42:07 PM 23.0500 -155.2167 205° Southwest 410 472 36,000  Level Honolulu Center
Mon 03:43:07 PM 22.9500 -155.2833 212° Southwest 410 472 36,000  Level Honolulu Center
Mon 03:44:07 PM 22.8500 -155.3333 205° Southwest 400 460 36,000  Level Honolulu Center
Mon 03:45:08 PM 22.7500 -155.3833 205° Southwest 410 472 36,000  Level Honolulu Center
Mon 03:46:07 PM 22.6500 -155.4500 212° Southwest 410 472 36,000  Level Honolulu Center
Mon 03:47:08 PM 22.5333 -155.5000 202° Southwest 410 472 36,000 -942 Level Honolulu Center
Mon 03:48:08 PM 22.4333 -155.5500 205° Southwest 410 472 34,100 -2,350 Descending Honolulu Center
Mon 03:49:08 PM 22.3333 -155.6167 212° Southwest 420 483 31,300 -2,650 Descending Honolulu Center
Mon 03:50:08 PM 22.2333 -155.6667 205° Southwest 410 472 28,800 -2,500 Descending Honolulu Center
Mon 03:51:08 PM 22.1333 -155.7167 205° Southwest 400 460 26,300 -2,400 Descending Honolulu Center
Mon 03:52:08 PM 22.0333 -155.7833 212° Southwest 380 437 24,000 -2,579 Descending Honolulu Center
Mon 03:53:09 PM 21.9333 -155.8333 205° Southwest 390 449 21,100 -3,124 Descending Honolulu Center
Mon 03:54:09 PM 21.8333 -155.8833 205° Southwest 390 449 17,700 -2,850 Descending Honolulu Center
Mon 03:55:09 PM 21.7333 -155.9333 205° Southwest 380 437 15,400 -2,400 Descending Honolulu Center
Mon 03:56:09 PM 21.6500 -155.9833 209° Southwest 370 426 12,900 -2,400 Descending Honolulu Center
Mon 03:57:09 PM 21.5500 -156.0333 205° Southwest 360 414 10,600 -1,450 Descending Honolulu Center
Mon 03:58:09 PM 21.4667 -156.0667 200° South 320 368 10,000 -700 Descending Honolulu Center
Mon 03:59:09 PM 21.4000 -156.1167 215° Southwest 270 311 9,200 -1,300 Descending Honolulu Center
Mon 04:00:09 PM 21.3333 -156.1500 205° Southwest 260 299 7,400 -1,587 Descending Honolulu Center
Mon 04:01:10 PM 21.2667 -156.1833 205° Southwest 260 299 6,000 -1,300 Descending Honolulu Center
Mon 04:02:09 PM 21.2000 -156.2167 205° Southwest 260 299 4,800 -1,250 Descending Honolulu Center
Mon 04:03:10 PM 21.1500 -156.2500 212° Southwest 260 299 3,500 -843 Descending Honolulu Center
Mon 04:04:10 PM 21.0833 -156.2833 205° Southwest 220 253 3,100 -500 Descending Honolulu Center
Mon 04:05:10 PM 21.0333 -156.3167 212° Southwest 200 230 2,500 -550 Descending Honolulu Center
Mon 04:06:10 PM 21.0000 -156.3500 223° Southwest 180 207 2,000 -500 Descending Honolulu Center

Login

Don't have an account? Register now (free) for customized features, flight alerts, and more!